This is the latest recevied weather packets stored in our database for station/object W6KRP-12. If no packets are shown the sender has not sent any weather packets the latest 10 day(s).
| Time | Temp. | Humidity | Pressure | Rain* | Wind** | Luminosity | Snow |
|---|---|---|---|---|---|---|---|
| 1777928406 | 25° C | 42% | 1013.3 hPa | 0 mm | - | - | - |
| 1777920605 | 28.33° C | 33% | 1014.2 hPa | 0 mm | - | - | - |
| 1777918806 | 28.33° C | 33% | 1014.4 hPa | 0 mm | - | - | - |
| 1777913406 | 23.89° C | 39% | 1015.1 hPa | 0 mm | - | - | - |
| 1777912806 | 23.89° C | 39% | 1015.1 hPa | 0 mm | - | - | - |
| 1777908006 | 21.67° C | 49% | 1015.8 hPa | 0 mm | - | - | - |
| 1777903205 | 21.67° C | 54% | 1016 hPa | 0 mm | - | - | - |
| 1777900206 | 17.22° C | 82% | 1016.1 hPa | 0 mm | - | - | - |
| 1777899005 | 16.11° C | 90% | 1016 hPa | 0 mm | - | - | - |
| 1777890005 | 7.78° C | 97% | 1015.5 hPa | 0 mm | - | - | - |
| 1777886406 | 8.33° C | 96% | 1015.5 hPa | 0 mm | - | - | - |
| 1777885205 | 8.33° C | 96% | 1015.5 hPa | 0 mm | - | - | - |
| 1777884606 | 8.33° C | 96% | 1015.5 hPa | 0 mm | - | - | - |
| 1777882206 | 8.89° C | 95% | 1015.6 hPa | 0 mm | - | - | - |
| 1777873805 | 10.56° C | 91% | 1016.2 hPa | 0 mm | - | - | - |
| 1777871406 | 10.56° C | 88% | 1016.2 hPa | 0 mm | - | - | - |
| 1777864206 | 12.22° C | 84% | 1016.2 hPa | 0 mm | - | - | - |
| 1777862406 | 12.22° C | 83% | 1016.2 hPa | 0 mm | - | - | - |
| 1777853405 | 16.67° C | 63% | 1014.9 hPa | 0 mm | - | - | - |
| 1777851005 | 20.56° C | 44% | 1014.5 hPa | 0 mm | - | - | - |
| 1777849806 | 21.67° C | 40% | 1014.3 hPa | 0 mm | - | - | - |
| 1777849205 | 22.22° C | 34% | 1014.4 hPa | 0 mm | - | - | - |
| 1777848005 | 22.22° C | 35% | 1014.4 hPa | 0 mm | - | - | - |
| 1777843806 | 21.67° C | 32% | 1014.5 hPa | 0 mm | - | - | - |
| 1777835405 | 22.78° C | 35% | 1016 hPa | 0 mm | - | - | - |
* Rain latest hour (hover to see other rain measurements)
** Current wind speed in m/s (hover to see current wind gust speed)